sensor_id;sensor_type;location;lat;lon;timestamp;temperature;humidity
19138;DHT22;68178;52.188;5.598;2023-07-16T00:02:24;19.80;99.90
19138;DHT22;68178;52.188;5.598;2023-07-16T00:04:49;19.80;99.90
19138;DHT22;68178;52.188;5.598;2023-07-16T00:07:15;19.80;99.90
19138;DHT22;68178;52.188;5.598;2023-07-16T00:09:40;19.80;99.90
19138;DHT22;68178;52.188;5.598;2023-07-16T00:12:06;19.90;99.90
19138;DHT22;68178;52.188;5.598;2023-07-16T00:14:32;19.80;99.90
19138;DHT22;68178;52.188;5.598;2023-07-16T00:16:58;19.80;99.90
19138;DHT22;68178;52.188;5.598;2023-07-16T00:19:23;19.90;99.90
19138;DHT22;68178;52.188;5.598;2023-07-16T00:21:49;19.90;99.90
19138;DHT22;68178;52.188;5.598;2023-07-16T00:24:14;19.90;99.90
19138;DHT22;68178;52.188;5.598;2023-07-16T00:26:40;19.80;99.90
19138;DHT22;68178;52.188;5.598;2023-07-16T00:29:05;19.80;99.90
19138;DHT22;68178;52.188;5.598;2023-07-16T00:31:31;19.70;99.90
19138;DHT22;68178;52.188;5.598;2023-07-16T00:33:56;19.80;99.90
19138;DHT22;68178;52.188;5.598;2023-07-16T00:36:22;19.70;99.90
19138;DHT22;68178;52.188;5.598;2023-07-16T00:38:48;19.70;99.90
19138;DHT22;68178;52.188;5.598;2023-07-16T00:41:15;19.70;99.90
19138;DHT22;68178;52.188;5.598;2023-07-16T00:43:41;19.70;99.90
19138;DHT22;68178;52.188;5.598;2023-07-16T00:46:08;19.60;99.90
19138;DHT22;68178;52.188;5.598;2023-07-16T00:48:34;19.70;99.90
19138;DHT22;68178;52.188;5.598;2023-07-16T00:51:01;19.70;99.90
19138;DHT22;68178;52.188;5.598;2023-07-16T00:53:27;19.70;99.90
19138;DHT22;68178;52.188;5.598;2023-07-16T00:55:52;19.70;99.90
19138;DHT22;68178;52.188;5.598;2023-07-16T00:58:18;19.70;99.90
19138;DHT22;68178;52.188;5.598;2023-07-16T01:00:44;19.70;99.90
19138;DHT22;68178;52.188;5.598;2023-07-16T01:03:12;19.60;99.90
19138;DHT22;68178;52.188;5.598;2023-07-16T01:05:49;19.60;99.90
19138;DHT22;68178;52.188;5.598;2023-07-16T01:08:27;19.60;99.90
19138;DHT22;68178;52.188;5.598;2023-07-16T01:10:54;19.60;99.90
19138;DHT22;68178;52.188;5.598;2023-07-16T01:13:20;19.50;99.90
19138;DHT22;68178;52.188;5.598;2023-07-16T01:15:46;19.50;99.90
19138;DHT22;68178;52.188;5.598;2023-07-16T01:18:12;19.60;99.90
19138;DHT22;68178;52.188;5.598;2023-07-16T01:20:37;19.50;99.90
19138;DHT22;68178;52.188;5.598;2023-07-16T01:26:07;19.50;99.90
19138;DHT22;68178;52.188;5.598;2023-07-16T01:28:53;19.50;99.90
19138;DHT22;68178;52.188;5.598;2023-07-16T01:31:22;19.40;99.90
19138;DHT22;68178;52.188;5.598;2023-07-16T01:33:51;19.40;99.90
19138;DHT22;68178;52.188;5.598;2023-07-16T01:36:18;19.40;99.90
19138;DHT22;68178;52.188;5.598;2023-07-16T01:38:44;19.40;99.90
19138;DHT22;68178;52.188;5.598;2023-07-16T01:41:10;19.40;99.90
19138;DHT22;68178;52.188;5.598;2023-07-16T01:43:36;19.30;99.90
19138;DHT22;68178;52.188;5.598;2023-07-16T01:46:02;19.30;99.90
19138;DHT22;68178;52.188;5.598;2023-07-16T01:48:33;19.30;99.90
19138;DHT22;68178;52.188;5.598;2023-07-16T01:50:59;19.20;99.90
19138;DHT22;68178;52.188;5.598;2023-07-16T01:53:25;19.30;99.90
19138;DHT22;68178;52.188;5.598;2023-07-16T01:55:50;19.30;99.90
19138;DHT22;68178;52.188;5.598;2023-07-16T01:58:16;19.20;99.90
19138;DHT22;68178;52.188;5.598;2023-07-16T02:00:42;19.20;99.90
19138;DHT22;68178;52.188;5.598;2023-07-16T02:03:07;19.10;99.90
19138;DHT22;68178;52.188;5.598;2023-07-16T02:05:33;19.20;99.90
19138;DHT22;68178;52.188;5.598;2023-07-16T02:07:59;19.10;99.90
19138;DHT22;68178;52.188;5.598;2023-07-16T02:10:24;19.00;99.90
19138;DHT22;68178;52.188;5.598;2023-07-16T02:12:50;19.00;99.90
19138;DHT22;68178;52.188;5.598;2023-07-16T02:15:16;19.00;99.90
19138;DHT22;68178;52.188;5.598;2023-07-16T02:17:43;19.00;99.90
19138;DHT22;68178;52.188;5.598;2023-07-16T02:20:09;19.00;99.90
19138;DHT22;68178;52.188;5.598;2023-07-16T02:22:36;18.90;99.90
19138;DHT22;68178;52.188;5.598;2023-07-16T02:25:03;18.90;99.90
19138;DHT22;68178;52.188;5.598;2023-07-16T02:27:28;18.90;99.90
19138;DHT22;68178;52.188;5.598;2023-07-16T02:29:54;18.80;99.90
19138;DHT22;68178;52.188;5.598;2023-07-16T02:32:20;18.80;99.90
19138;DHT22;68178;52.188;5.598;2023-07-16T02:34:46;18.80;99.90
19138;DHT22;68178;52.188;5.598;2023-07-16T02:37:11;18.80;99.90
19138;DHT22;68178;52.188;5.598;2023-07-16T02:39:38;18.80;99.90
19138;DHT22;68178;52.188;5.598;2023-07-16T02:42:04;18.80;99.90
19138;DHT22;68178;52.188;5.598;2023-07-16T02:44:30;18.70;99.90
19138;DHT22;68178;52.188;5.598;2023-07-16T02:46:56;18.70;99.90
19138;DHT22;68178;52.188;5.598;2023-07-16T02:49:21;18.70;99.90
19138;DHT22;68178;52.188;5.598;2023-07-16T02:51:47;18.80;99.90
19138;DHT22;68178;52.188;5.598;2023-07-16T02:54:12;18.70;99.90
19138;DHT22;68178;52.188;5.598;2023-07-16T02:56:38;18.80;99.90
19138;DHT22;68178;52.188;5.598;2023-07-16T02:59:04;18.70;99.90
19138;DHT22;68178;52.188;5.598;2023-07-16T03:01:29;18.80;99.90
19138;DHT22;68178;52.188;5.598;2023-07-16T03:03:55;18.80;99.90
19138;DHT22;68178;52.188;5.598;2023-07-16T03:06:20;18.90;99.90
19138;DHT22;68178;52.188;5.598;2023-07-16T03:08:46;18.80;99.90
19138;DHT22;68178;52.188;5.598;2023-07-16T03:11:12;18.90;99.90
19138;DHT22;68178;52.188;5.598;2023-07-16T03:13:37;18.80;99.90
19138;DHT22;68178;52.188;5.598;2023-07-16T03:16:03;18.80;99.90
19138;DHT22;68178;52.188;5.598;2023-07-16T03:18:29;18.70;99.90
19138;DHT22;68178;52.188;5.598;2023-07-16T03:20:56;18.70;99.90
19138;DHT22;68178;52.188;5.598;2023-07-16T03:23:22;18.80;99.90
19138;DHT22;68178;52.188;5.598;2023-07-16T03:25:48;18.70;99.90
19138;DHT22;68178;52.188;5.598;2023-07-16T03:28:14;18.70;99.90
19138;DHT22;68178;52.188;5.598;2023-07-16T03:30:39;18.60;99.90
19138;DHT22;68178;52.188;5.598;2023-07-16T03:33:05;18.60;99.90
19138;DHT22;68178;52.188;5.598;2023-07-16T03:35:31;18.60;99.90
19138;DHT22;68178;52.188;5.598;2023-07-16T03:37:56;18.60;99.90
19138;DHT22;68178;52.188;5.598;2023-07-16T03:40:25;18.60;99.90
19138;DHT22;68178;52.188;5.598;2023-07-16T03:42:50;18.60;99.90
19138;DHT22;68178;52.188;5.598;2023-07-16T03:45:16;18.60;99.90
19138;DHT22;68178;52.188;5.598;2023-07-16T03:47:42;18.60;99.90
19138;DHT22;68178;52.188;5.598;2023-07-16T03:50:08;18.50;99.90
19138;DHT22;68178;52.188;5.598;2023-07-16T03:52:34;18.60;99.90
19138;DHT22;68178;52.188;5.598;2023-07-16T03:55:00;18.50;99.90
19138;DHT22;68178;52.188;5.598;2023-07-16T03:57:29;18.60;99.90
19138;DHT22;68178;52.188;5.598;2023-07-16T03:59:55;18.50;99.90
19138;DHT22;68178;52.188;5.598;2023-07-16T04:02:20;18.50;99.90
19138;DHT22;68178;52.188;5.598;2023-07-16T04:04:46;18.60;99.90
19138;DHT22;68178;52.188;5.598;2023-07-16T04:07:12;18.60;99.90
19138;DHT22;68178;52.188;5.598;2023-07-16T04:09:38;18.60;99.90
19138;DHT22;68178;52.188;5.598;2023-07-16T04:12:05;18.50;99.90
19138;DHT22;68178;52.188;5.598;2023-07-16T04:14:31;18.50;99.90
19138;DHT22;68178;52.188;5.598;2023-07-16T04:16:57;18.50;99.90
19138;DHT22;68178;52.188;5.598;2023-07-16T04:19:22;18.50;99.90
19138;DHT22;68178;52.188;5.598;2023-07-16T04:21:48;18.50;99.90
19138;DHT22;68178;52.188;5.598;2023-07-16T04:24:13;18.40;99.90
19138;DHT22;68178;52.188;5.598;2023-07-16T04:26:39;18.40;99.90
19138;DHT22;68178;52.188;5.598;2023-07-16T04:29:04;18.40;99.90
19138;DHT22;68178;52.188;5.598;2023-07-16T04:31:30;18.50;99.90
19138;DHT22;68178;52.188;5.598;2023-07-16T04:33:56;18.50;99.90
19138;DHT22;68178;52.188;5.598;2023-07-16T04:36:21;18.50;99.90
19138;DHT22;68178;52.188;5.598;2023-07-16T04:38:47;18.50;99.90
19138;DHT22;68178;52.188;5.598;2023-07-16T04:41:12;18.40;99.90
19138;DHT22;68178;52.188;5.598;2023-07-16T04:43:39;18.50;99.90
19138;DHT22;68178;52.188;5.598;2023-07-16T04:46:04;18.50;99.90
19138;DHT22;68178;52.188;5.598;2023-07-16T04:48:30;18.60;99.90
19138;DHT22;68178;52.188;5.598;2023-07-16T04:50:56;18.60;99.90
19138;DHT22;68178;52.188;5.598;2023-07-16T04:53:22;18.60;99.90
19138;DHT22;68178;52.188;5.598;2023-07-16T04:55:48;18.60;99.90
19138;DHT22;68178;52.188;5.598;2023-07-16T04:58:14;18.60;99.90
19138;DHT22;68178;52.188;5.598;2023-07-16T05:00:40;18.60;99.90
19138;DHT22;68178;52.188;5.598;2023-07-16T05:03:05;18.60;99.90
19138;DHT22;68178;52.188;5.598;2023-07-16T05:05:31;18.60;99.90
19138;DHT22;68178;52.188;5.598;2023-07-16T05:07:56;18.70;99.90
19138;DHT22;68178;52.188;5.598;2023-07-16T05:10:22;18.70;99.90
19138;DHT22;68178;52.188;5.598;2023-07-16T05:12:48;18.70;99.90
19138;DHT22;68178;52.188;5.598;2023-07-16T05:15:15;18.80;99.90
19138;DHT22;68178;52.188;5.598;2023-07-16T05:17:41;18.80;99.90
19138;DHT22;68178;52.188;5.598;2023-07-16T05:20:07;18.80;99.90
19138;DHT22;68178;52.188;5.598;2023-07-16T05:22:34;18.80;99.90
19138;DHT22;68178;52.188;5.598;2023-07-16T05:25:00;18.80;99.90
19138;DHT22;68178;52.188;5.598;2023-07-16T05:27:26;18.80;99.90
19138;DHT22;68178;52.188;5.598;2023-07-16T05:29:51;18.80;99.90
19138;DHT22;68178;52.188;5.598;2023-07-16T05:32:17;18.80;99.90
19138;DHT22;68178;52.188;5.598;2023-07-16T05:34:42;18.90;99.90
19138;DHT22;68178;52.188;5.598;2023-07-16T05:37:08;18.90;99.90
19138;DHT22;68178;52.188;5.598;2023-07-16T05:39:34;19.00;99.90
19138;DHT22;68178;52.188;5.598;2023-07-16T05:41:59;19.00;99.90
19138;DHT22;68178;52.188;5.598;2023-07-16T05:44:28;19.00;99.90
19138;DHT22;68178;52.188;5.598;2023-07-16T05:46:53;19.10;99.90
19138;DHT22;68178;52.188;5.598;2023-07-16T05:49:19;19.00;99.90
19138;DHT22;68178;52.188;5.598;2023-07-16T05:51:44;19.20;99.90
19138;DHT22;68178;52.188;5.598;2023-07-16T05:54:10;19.20;99.90
19138;DHT22;68178;52.188;5.598;2023-07-16T05:56:35;19.20;99.90
19138;DHT22;68178;52.188;5.598;2023-07-16T05:59:01;19.20;99.90
19138;DHT22;68178;52.188;5.598;2023-07-16T06:01:27;19.30;99.90
19138;DHT22;68178;52.188;5.598;2023-07-16T06:03:52;19.40;99.90
19138;DHT22;68178;52.188;5.598;2023-07-16T06:06:19;19.40;99.90
19138;DHT22;68178;52.188;5.598;2023-07-16T06:08:44;19.50;99.90
19138;DHT22;68178;52.188;5.598;2023-07-16T06:11:10;19.50;99.90
19138;DHT22;68178;52.188;5.598;2023-07-16T06:13:36;19.50;99.90
19138;DHT22;68178;52.188;5.598;2023-07-16T06:16:01;19.60;99.90
19138;DHT22;68178;52.188;5.598;2023-07-16T06:18:27;19.50;99.90
19138;DHT22;68178;52.188;5.598;2023-07-16T06:20:52;19.60;99.90
19138;DHT22;68178;52.188;5.598;2023-07-16T06:23:20;19.70;99.90
19138;DHT22;68178;52.188;5.598;2023-07-16T06:25:45;19.70;99.90
19138;DHT22;68178;52.188;5.598;2023-07-16T06:28:13;19.60;99.90
19138;DHT22;68178;52.188;5.598;2023-07-16T06:30:38;19.70;99.90
19138;DHT22;68178;52.188;5.598;2023-07-16T06:33:05;19.70;99.90
19138;DHT22;68178;52.188;5.598;2023-07-16T06:35:31;19.70;99.90
19138;DHT22;68178;52.188;5.598;2023-07-16T06:37:57;19.70;99.90
19138;DHT22;68178;52.188;5.598;2023-07-16T06:40:24;19.80;99.90
19138;DHT22;68178;52.188;5.598;2023-07-16T06:42:50;19.90;99.90
19138;DHT22;68178;52.188;5.598;2023-07-16T06:45:17;19.90;99.90
19138;DHT22;68178;52.188;5.598;2023-07-16T06:47:43;20.00;99.90
19138;DHT22;68178;52.188;5.598;2023-07-16T06:50:09;20.00;99.90
19138;DHT22;68178;52.188;5.598;2023-07-16T06:52:35;20.10;99.90
19138;DHT22;68178;52.188;5.598;2023-07-16T06:55:00;20.20;99.90
19138;DHT22;68178;52.188;5.598;2023-07-16T06:57:26;20.30;99.90
19138;DHT22;68178;52.188;5.598;2023-07-16T06:59:52;20.30;99.90
19138;DHT22;68178;52.188;5.598;2023-07-16T07:02:18;20.20;99.90
19138;DHT22;68178;52.188;5.598;2023-07-16T07:04:44;20.30;99.90
19138;DHT22;68178;52.188;5.598;2023-07-16T07:07:09;20.30;99.90
19138;DHT22;68178;52.188;5.598;2023-07-16T07:09:35;20.20;99.90
19138;DHT22;68178;52.188;5.598;2023-07-16T07:12:01;20.40;99.90
19138;DHT22;68178;52.188;5.598;2023-07-16T07:14:27;20.50;99.90
19138;DHT22;68178;52.188;5.598;2023-07-16T07:16:52;20.60;99.90
19138;DHT22;68178;52.188;5.598;2023-07-16T07:19:18;20.60;99.90
19138;DHT22;68178;52.188;5.598;2023-07-16T07:21:45;20.60;99.90
19138;DHT22;68178;52.188;5.598;2023-07-16T07:24:11;20.70;99.90
19138;DHT22;68178;52.188;5.598;2023-07-16T07:26:36;20.80;99.90
19138;DHT22;68178;52.188;5.598;2023-07-16T07:29:02;20.90;99.90
19138;DHT22;68178;52.188;5.598;2023-07-16T07:31:28;20.90;99.90
19138;DHT22;68178;52.188;5.598;2023-07-16T07:33:53;21.00;99.90
19138;DHT22;68178;52.188;5.598;2023-07-16T07:36:19;21.00;99.90
19138;DHT22;68178;52.188;5.598;2023-07-16T07:38:45;20.90;99.90
19138;DHT22;68178;52.188;5.598;2023-07-16T07:41:10;20.80;99.90
19138;DHT22;68178;52.188;5.598;2023-07-16T07:43:36;20.80;99.90
19138;DHT22;68178;52.188;5.598;2023-07-16T07:46:01;20.80;99.90
19138;DHT22;68178;52.188;5.598;2023-07-16T07:48:27;20.60;99.90
19138;DHT22;68178;52.188;5.598;2023-07-16T07:50:53;20.60;99.90
19138;DHT22;68178;52.188;5.598;2023-07-16T07:53:18;20.70;99.90
19138;DHT22;68178;52.188;5.598;2023-07-16T07:55:47;20.70;99.90
19138;DHT22;68178;52.188;5.598;2023-07-16T07:58:13;20.60;99.90
19138;DHT22;68178;52.188;5.598;2023-07-16T08:00:39;20.60;99.90
19138;DHT22;68178;52.188;5.598;2023-07-16T08:03:04;20.60;99.90
19138;DHT22;68178;52.188;5.598;2023-07-16T08:05:31;20.60;99.90
19138;DHT22;68178;52.188;5.598;2023-07-16T08:07:58;20.60;99.90
19138;DHT22;68178;52.188;5.598;2023-07-16T08:10:24;20.60;99.90
19138;DHT22;68178;52.188;5.598;2023-07-16T08:12:49;20.60;99.90
19138;DHT22;68178;52.188;5.598;2023-07-16T08:15:15;20.70;99.90
19138;DHT22;68178;52.188;5.598;2023-07-16T08:17:41;20.60;99.90
19138;DHT22;68178;52.188;5.598;2023-07-16T08:20:08;20.50;99.90
19138;DHT22;68178;52.188;5.598;2023-07-16T08:22:34;20.60;99.90
19138;DHT22;68178;52.188;5.598;2023-07-16T08:24:59;20.60;99.90
19138;DHT22;68178;52.188;5.598;2023-07-16T08:27:25;20.90;99.90
19138;DHT22;68178;52.188;5.598;2023-07-16T08:29:50;21.10;99.90
19138;DHT22;68178;52.188;5.598;2023-07-16T08:32:16;21.10;99.90
19138;DHT22;68178;52.188;5.598;2023-07-16T08:34:42;21.00;99.90
19138;DHT22;68178;52.188;5.598;2023-07-16T08:37:07;20.80;99.90
19138;DHT22;68178;52.188;5.598;2023-07-16T08:39:33;20.90;99.90
19138;DHT22;68178;52.188;5.598;2023-07-16T08:41:59;21.00;99.90
19138;DHT22;68178;52.188;5.598;2023-07-16T08:44:25;21.10;99.90
19138;DHT22;68178;52.188;5.598;2023-07-16T08:46:52;21.40;99.90
19138;DHT22;68178;52.188;5.598;2023-07-16T08:49:18;21.50;99.90
19138;DHT22;68178;52.188;5.598;2023-07-16T08:51:47;21.50;99.90
19138;DHT22;68178;52.188;5.598;2023-07-16T08:54:13;21.40;99.90
19138;DHT22;68178;52.188;5.598;2023-07-16T08:56:43;21.30;99.90
19138;DHT22;68178;52.188;5.598;2023-07-16T08:59:10;21.20;99.90
19138;DHT22;68178;52.188;5.598;2023-07-16T09:01:36;20.80;99.90
19138;DHT22;68178;52.188;5.598;2023-07-16T09:04:02;20.60;99.90
19138;DHT22;68178;52.188;5.598;2023-07-16T09:06:29;20.70;99.90
19138;DHT22;68178;52.188;5.598;2023-07-16T09:08:55;20.70;99.90
19138;DHT22;68178;52.188;5.598;2023-07-16T09:11:21;20.70;99.90
19138;DHT22;68178;52.188;5.598;2023-07-16T09:13:48;20.70;99.90
19138;DHT22;68178;52.188;5.598;2023-07-16T09:16:14;20.70;99.90
19138;DHT22;68178;52.188;5.598;2023-07-16T09:18:42;20.70;99.90
19138;DHT22;68178;52.188;5.598;2023-07-16T09:21:08;21.10;99.90
19138;DHT22;68178;52.188;5.598;2023-07-16T09:23:35;21.00;99.90
19138;DHT22;68178;52.188;5.598;2023-07-16T09:26:02;21.20;99.90
19138;DHT22;68178;52.188;5.598;2023-07-16T09:28:32;21.50;99.90
19138;DHT22;68178;52.188;5.598;2023-07-16T09:31:07;21.50;99.90
19138;DHT22;68178;52.188;5.598;2023-07-16T09:33:33;21.50;99.90
19138;DHT22;68178;52.188;5.598;2023-07-16T09:35:58;21.50;99.90
19138;DHT22;68178;52.188;5.598;2023-07-16T09:38:24;21.20;99.90
19138;DHT22;68178;52.188;5.598;2023-07-16T09:40:52;21.00;99.90
19138;DHT22;68178;52.188;5.598;2023-07-16T09:43:18;20.90;99.90
19138;DHT22;68178;52.188;5.598;2023-07-16T09:45:43;20.80;99.90
19138;DHT22;68178;52.188;5.598;2023-07-16T09:48:09;20.80;99.90
19138;DHT22;68178;52.188;5.598;2023-07-16T09:50:35;21.10;99.90
19138;DHT22;68178;52.188;5.598;2023-07-16T09:53:03;21.30;99.90
19138;DHT22;68178;52.188;5.598;2023-07-16T09:55:31;21.60;99.90
19138;DHT22;68178;52.188;5.598;2023-07-16T09:57:57;21.60;99.90
19138;DHT22;68178;52.188;5.598;2023-07-16T10:00:25;21.50;99.90
19138;DHT22;68178;52.188;5.598;2023-07-16T10:02:52;21.50;99.90
19138;DHT22;68178;52.188;5.598;2023-07-16T10:05:28;21.40;99.90
19138;DHT22;68178;52.188;5.598;2023-07-16T10:07:59;21.30;99.90
19138;DHT22;68178;52.188;5.598;2023-07-16T10:10:53;21.50;99.90
19138;DHT22;68178;52.188;5.598;2023-07-16T10:13:22;21.60;99.90
19138;DHT22;68178;52.188;5.598;2023-07-16T10:15:58;21.70;99.90
19138;DHT22;68178;52.188;5.598;2023-07-16T10:18:30;21.80;99.90
19138;DHT22;68178;52.188;5.598;2023-07-16T10:21:04;21.80;99.90
19138;DHT22;68178;52.188;5.598;2023-07-16T10:23:43;21.50;99.90
19138;DHT22;68178;52.188;5.598;2023-07-16T10:26:13;21.40;99.90
19138;DHT22;68178;52.188;5.598;2023-07-16T10:28:39;21.60;99.90
19138;DHT22;68178;52.188;5.598;2023-07-16T10:31:06;21.70;99.90
19138;DHT22;68178;52.188;5.598;2023-07-16T10:33:42;21.90;99.90
19138;DHT22;68178;52.188;5.598;2023-07-16T10:36:07;22.10;99.90
19138;DHT22;68178;52.188;5.598;2023-07-16T10:38:40;22.40;99.90
19138;DHT22;68178;52.188;5.598;2023-07-16T10:41:07;22.40;99.90
19138;DHT22;68178;52.188;5.598;2023-07-16T10:43:32;22.10;99.90
19138;DHT22;68178;52.188;5.598;2023-07-16T10:45:58;21.80;99.90
19138;DHT22;68178;52.188;5.598;2023-07-16T10:48:27;21.70;99.90
19138;DHT22;68178;52.188;5.598;2023-07-16T10:50:55;21.50;99.90
19138;DHT22;68178;52.188;5.598;2023-07-16T10:53:21;21.30;99.90
19138;DHT22;68178;52.188;5.598;2023-07-16T10:55:46;21.20;99.90
19138;DHT22;68178;52.188;5.598;2023-07-16T10:58:12;21.20;99.90
19138;DHT22;68178;52.188;5.598;2023-07-16T11:00:39;21.30;99.90
19138;DHT22;68178;52.188;5.598;2023-07-16T11:03:05;21.60;99.90
19138;DHT22;68178;52.188;5.598;2023-07-16T11:05:31;22.00;99.90
19138;DHT22;68178;52.188;5.598;2023-07-16T11:07:57;22.10;99.90
19138;DHT22;68178;52.188;5.598;2023-07-16T11:10:23;22.10;99.90
19138;DHT22;68178;52.188;5.598;2023-07-16T11:12:53;22.10;99.90
19138;DHT22;68178;52.188;5.598;2023-07-16T11:15:30;22.20;99.90
19138;DHT22;68178;52.188;5.598;2023-07-16T11:17:55;22.40;99.90
19138;DHT22;68178;52.188;5.598;2023-07-16T11:20:21;22.60;99.90
19138;DHT22;68178;52.188;5.598;2023-07-16T11:22:47;23.00;99.90
19138;DHT22;68178;52.188;5.598;2023-07-16T11:25:13;23.40;99.90
19138;DHT22;68178;52.188;5.598;2023-07-16T11:27:41;23.60;99.90
19138;DHT22;68178;52.188;5.598;2023-07-16T11:30:07;23.70;99.90
19138;DHT22;68178;52.188;5.598;2023-07-16T11:32:35;23.70;99.90
19138;DHT22;68178;52.188;5.598;2023-07-16T11:35:05;23.60;99.90
19138;DHT22;68178;52.188;5.598;2023-07-16T11:37:33;23.20;99.90
19138;DHT22;68178;52.188;5.598;2023-07-16T11:40:04;22.80;99.90
19138;DHT22;68178;52.188;5.598;2023-07-16T11:42:31;22.50;99.90
19138;DHT22;68178;52.188;5.598;2023-07-16T11:44:58;22.20;99.90
19138;DHT22;68178;52.188;5.598;2023-07-16T11:47:24;22.00;99.90
19138;DHT22;68178;52.188;5.598;2023-07-16T11:49:49;21.90;99.90
19138;DHT22;68178;52.188;5.598;2023-07-16T11:52:26;21.80;99.90
19138;DHT22;68178;52.188;5.598;2023-07-16T11:54:52;21.80;99.90
19138;DHT22;68178;52.188;5.598;2023-07-16T11:57:18;22.10;99.90
19138;DHT22;68178;52.188;5.598;2023-07-16T11:59:44;22.60;99.90
19138;DHT22;68178;52.188;5.598;2023-07-16T12:02:10;22.60;99.90
19138;DHT22;68178;52.188;5.598;2023-07-16T12:04:35;22.80;99.90
19138;DHT22;68178;52.188;5.598;2023-07-16T12:07:01;22.80;99.90
19138;DHT22;68178;52.188;5.598;2023-07-16T12:09:27;23.10;99.90
19138;DHT22;68178;52.188;5.598;2023-07-16T12:11:52;23.20;99.90
19138;DHT22;68178;52.188;5.598;2023-07-16T12:14:18;23.20;99.90
19138;DHT22;68178;52.188;5.598;2023-07-16T12:16:44;23.30;99.90
19138;DHT22;68178;52.188;5.598;2023-07-16T12:19:09;23.30;99.90
19138;DHT22;68178;52.188;5.598;2023-07-16T12:21:36;23.20;99.90
19138;DHT22;68178;52.188;5.598;2023-07-16T12:24:01;23.30;99.90
19138;DHT22;68178;52.188;5.598;2023-07-16T12:26:27;23.40;99.90
19138;DHT22;68178;52.188;5.598;2023-07-16T12:28:53;23.30;99.90
19138;DHT22;68178;52.188;5.598;2023-07-16T12:31:18;23.50;99.90
19138;DHT22;68178;52.188;5.598;2023-07-16T12:33:46;24.10;99.90
19138;DHT22;68178;52.188;5.598;2023-07-16T12:36:12;24.30;99.90
19138;DHT22;68178;52.188;5.598;2023-07-16T12:38:38;24.50;99.90
19138;DHT22;68178;52.188;5.598;2023-07-16T12:41:03;24.80;99.90
19138;DHT22;68178;52.188;5.598;2023-07-16T12:43:32;24.30;99.90
19138;DHT22;68178;52.188;5.598;2023-07-16T12:46:00;23.70;99.90
19138;DHT22;68178;52.188;5.598;2023-07-16T12:48:28;23.50;99.90
19138;DHT22;68178;52.188;5.598;2023-07-16T12:50:54;23.80;99.90
19138;DHT22;68178;52.188;5.598;2023-07-16T12:53:19;24.20;99.90
19138;DHT22;68178;52.188;5.598;2023-07-16T12:55:45;24.70;99.90
19138;DHT22;68178;52.188;5.598;2023-07-16T12:58:10;25.00;99.90
19138;DHT22;68178;52.188;5.598;2023-07-16T13:00:36;25.20;99.90
19138;DHT22;68178;52.188;5.598;2023-07-16T13:03:02;25.50;99.90
19138;DHT22;68178;52.188;5.598;2023-07-16T13:05:28;25.80;99.90
19138;DHT22;68178;52.188;5.598;2023-07-16T13:07:53;26.00;99.90
19138;DHT22;68178;52.188;5.598;2023-07-16T13:10:19;26.20;99.90
19138;DHT22;68178;52.188;5.598;2023-07-16T13:12:44;25.90;99.90
19138;DHT22;68178;52.188;5.598;2023-07-16T13:15:10;25.50;99.90
19138;DHT22;68178;52.188;5.598;2023-07-16T13:17:36;24.90;99.90
19138;DHT22;68178;52.188;5.598;2023-07-16T13:20:03;24.60;99.90
19138;DHT22;68178;52.188;5.598;2023-07-16T13:22:31;24.80;99.90
19138;DHT22;68178;52.188;5.598;2023-07-16T13:24:57;25.30;99.90
19138;DHT22;68178;52.188;5.598;2023-07-16T13:27:23;25.00;99.90
19138;DHT22;68178;52.188;5.598;2023-07-16T13:29:49;24.90;99.90
19138;DHT22;68178;52.188;5.598;2023-07-16T13:32:16;24.90;99.90
19138;DHT22;68178;52.188;5.598;2023-07-16T13:34:42;24.70;99.90
19138;DHT22;68178;52.188;5.598;2023-07-16T13:37:07;24.70;99.90
19138;DHT22;68178;52.188;5.598;2023-07-16T13:39:33;25.10;99.90
19138;DHT22;68178;52.188;5.598;2023-07-16T13:41:59;25.60;99.90
19138;DHT22;68178;52.188;5.598;2023-07-16T13:44:24;25.40;99.90
19138;DHT22;68178;52.188;5.598;2023-07-16T13:46:50;25.40;99.90
19138;DHT22;68178;52.188;5.598;2023-07-16T13:49:17;25.20;99.90
19138;DHT22;68178;52.188;5.598;2023-07-16T13:51:43;24.90;99.90
19138;DHT22;68178;52.188;5.598;2023-07-16T13:54:11;24.70;99.90
19138;DHT22;68178;52.188;5.598;2023-07-16T13:56:37;24.70;99.90
19138;DHT22;68178;52.188;5.598;2023-07-16T13:59:04;24.60;99.90
19138;DHT22;68178;52.188;5.598;2023-07-16T14:01:30;24.70;99.90
19138;DHT22;68178;52.188;5.598;2023-07-16T14:03:55;25.00;99.90
19138;DHT22;68178;52.188;5.598;2023-07-16T14:06:21;24.90;99.90
19138;DHT22;68178;52.188;5.598;2023-07-16T14:08:47;25.30;99.90
19138;DHT22;68178;52.188;5.598;2023-07-16T14:11:12;25.50;99.90
19138;DHT22;68178;52.188;5.598;2023-07-16T14:13:39;25.70;99.90
19138;DHT22;68178;52.188;5.598;2023-07-16T14:16:05;25.60;99.90
19138;DHT22;68178;52.188;5.598;2023-07-16T14:18:31;25.60;99.90
19138;DHT22;68178;52.188;5.598;2023-07-16T14:20:56;25.60;99.90
19138;DHT22;68178;52.188;5.598;2023-07-16T14:23:22;25.90;99.90
19138;DHT22;68178;52.188;5.598;2023-07-16T14:25:48;26.20;99.90
19138;DHT22;68178;52.188;5.598;2023-07-16T14:28:13;26.10;99.90
19138;DHT22;68178;52.188;5.598;2023-07-16T14:30:39;25.80;99.90
19138;DHT22;68178;52.188;5.598;2023-07-16T14:33:04;25.40;99.90
19138;DHT22;68178;52.188;5.598;2023-07-16T14:35:32;25.50;99.90
19138;DHT22;68178;52.188;5.598;2023-07-16T14:38:00;25.20;99.90
19138;DHT22;68178;52.188;5.598;2023-07-16T14:40:26;25.00;99.90
19138;DHT22;68178;52.188;5.598;2023-07-16T14:42:51;25.00;99.90
19138;DHT22;68178;52.188;5.598;2023-07-16T14:45:17;25.30;99.90
19138;DHT22;68178;52.188;5.598;2023-07-16T14:47:43;25.50;99.90
19138;DHT22;68178;52.188;5.598;2023-07-16T14:50:09;25.70;99.90
19138;DHT22;68178;52.188;5.598;2023-07-16T14:52:35;25.60;99.90
19138;DHT22;68178;52.188;5.598;2023-07-16T14:55:02;25.60;99.90
19138;DHT22;68178;52.188;5.598;2023-07-16T14:57:30;25.60;99.90
19138;DHT22;68178;52.188;5.598;2023-07-16T14:59:55;25.10;99.90
19138;DHT22;68178;52.188;5.598;2023-07-16T15:02:21;25.00;99.90
19138;DHT22;68178;52.188;5.598;2023-07-16T15:04:47;24.80;99.90
19138;DHT22;68178;52.188;5.598;2023-07-16T15:07:13;24.60;99.90
19138;DHT22;68178;52.188;5.598;2023-07-16T15:09:38;24.70;99.90
19138;DHT22;68178;52.188;5.598;2023-07-16T15:12:07;24.60;99.90
19138;DHT22;68178;52.188;5.598;2023-07-16T15:14:33;24.80;99.90
19138;DHT22;68178;52.188;5.598;2023-07-16T15:16:59;24.90;99.90
19138;DHT22;68178;52.188;5.598;2023-07-16T15:19:24;24.80;99.90
19138;DHT22;68178;52.188;5.598;2023-07-16T15:21:50;24.50;99.90
19138;DHT22;68178;52.188;5.598;2023-07-16T15:24:16;24.60;99.90
19138;DHT22;68178;52.188;5.598;2023-07-16T15:26:42;24.60;99.90
19138;DHT22;68178;52.188;5.598;2023-07-16T15:29:07;24.30;99.90